createdAt,value
2023-04-16T00:00:59.845Z,15.27
2023-04-16T00:02:04.851Z,15.98
2023-04-16T00:03:09.783Z,16.60
2023-04-16T00:04:12.066Z,14.88
2023-04-16T00:05:16.953Z,16.83
2023-04-16T00:06:19.039Z,15.73
2023-04-16T00:07:23.743Z,14.13
2023-04-16T00:08:25.908Z,13.70
2023-04-16T00:09:30.552Z,16.05
2023-04-16T00:10:32.632Z,14.50
2023-04-16T00:11:37.316Z,15.90
2023-04-16T00:12:39.377Z,13.90
2023-04-16T00:13:44.110Z,15.25
2023-04-16T00:14:46.168Z,15.63
2023-04-16T00:15:51.230Z,13.70
2023-04-16T00:16:53.403Z,13.18
2023-04-16T00:18:05.064Z,11.88
2023-04-16T00:20:13.354Z,13.82
2023-04-16T00:21:15.716Z,12.13
2023-04-16T00:22:20.388Z,13.85
2023-04-16T00:23:22.501Z,13.27
2023-04-16T00:24:27.119Z,12.68
2023-04-16T00:25:29.196Z,13.32
2023-04-16T00:26:36.071Z,12.73
2023-04-16T00:27:38.145Z,14.43
2023-04-16T00:28:42.805Z,15.48
2023-04-16T00:29:44.888Z,12.13
2023-04-16T00:30:49.556Z,13.77
2023-04-16T00:31:51.651Z,13.30
2023-04-16T00:32:56.366Z,11.52
2023-04-16T00:34:01.112Z,11.73
2023-04-16T00:35:05.817Z,12.05
2023-04-16T00:36:08.203Z,11.60
2023-04-16T00:37:12.901Z,11.80
2023-04-16T00:38:15.414Z,11.68
2023-04-16T00:39:20.111Z,12.93
2023-04-16T00:40:22.482Z,14.73
2023-04-16T00:41:27.590Z,11.82
2023-04-16T00:42:29.646Z,11.48
2023-04-16T00:43:34.974Z,10.88
2023-04-16T00:44:37.249Z,11.02
2023-04-16T00:45:42.023Z,10.10
2023-04-16T00:46:44.779Z,10.43
2023-04-16T00:47:49.973Z,13.13
2023-04-16T00:48:54.308Z,10.45
2023-04-16T00:50:01.575Z,8.80
2023-04-16T00:51:05.740Z,14.88
2023-04-16T00:52:10.864Z,10.35
2023-04-16T00:53:13.820Z,11.68
2023-04-16T00:54:18.502Z,11.27
2023-04-16T00:55:21.536Z,11.73
2023-04-16T00:56:27.816Z,11.38
2023-04-16T00:57:31.430Z,11.70
2023-04-16T00:58:36.924Z,11.93
2023-04-16T00:59:39.011Z,12.15
2023-04-16T01:00:43.751Z,12.57
2023-04-16T01:01:45.872Z,11.23
2023-04-16T01:02:50.640Z,11.85
2023-04-16T01:03:52.902Z,11.27
2023-04-16T01:04:58.263Z,11.90
2023-04-16T01:06:03.614Z,11.18
2023-04-16T01:07:08.545Z,11.02
2023-04-16T01:08:17.119Z,11.93
2023-04-16T01:09:21.948Z,10.10
2023-04-16T01:10:24.045Z,9.10
2023-04-16T01:11:28.745Z,9.63
2023-04-16T01:12:34.343Z,8.70
2023-04-16T01:13:39.926Z,9.57
2023-04-16T01:14:42.117Z,11.15
2023-04-16T01:15:53.550Z,10.30
2023-04-16T01:16:55.625Z,13.68
2023-04-16T01:18:00.393Z,9.90
2023-04-16T01:19:02.997Z,9.68
2023-04-16T01:20:08.562Z,10.38
2023-04-16T01:21:13.259Z,9.65
2023-04-16T01:22:17.927Z,9.13
2023-04-16T01:23:20.050Z,10.32
2023-04-16T01:24:24.733Z,10.50
2023-04-16T01:25:26.824Z,9.88
2023-04-16T01:26:31.544Z,11.98
2023-04-16T01:27:33.669Z,9.98
2023-04-16T01:28:38.561Z,9.95
2023-04-16T01:29:40.687Z,11.02
2023-04-16T01:30:45.466Z,9.60
2023-04-16T01:31:47.630Z,10.23
2023-04-16T01:32:53.639Z,13.27
2023-04-16T01:33:55.801Z,10.93
2023-04-16T01:35:00.567Z,15.45
2023-04-16T01:36:02.970Z,9.93
2023-04-16T01:37:10.228Z,10.13
2023-04-16T01:38:12.271Z,11.73
2023-04-16T01:39:17.410Z,10.68
2023-04-16T01:40:19.857Z,11.40
2023-04-16T01:41:24.516Z,11.05
2023-04-16T01:42:26.603Z,9.77
2023-04-16T01:43:31.292Z,9.20
2023-04-16T01:44:33.364Z,11.25
2023-04-16T01:45:38.495Z,10.65
2023-04-16T01:46:40.892Z,10.57
2023-04-16T01:47:45.780Z,10.38
2023-04-16T01:48:48.509Z,12.40
2023-04-16T01:49:53.230Z,10.20
2023-04-16T01:50:55.389Z,9.13
2023-04-16T01:52:00.040Z,13.20
2023-04-16T01:53:05.347Z,12.63
2023-04-16T01:54:10.081Z,9.50
2023-04-16T01:55:12.993Z,12.25
2023-04-16T01:56:17.621Z,9.45
2023-04-16T01:57:19.678Z,11.75
2023-04-16T01:58:25.501Z,9.82
2023-04-16T01:59:27.800Z,10.20
2023-04-16T02:00:32.817Z,12.18
2023-04-16T02:01:35.413Z,10.40
2023-04-16T02:02:40.465Z,11.43
2023-04-16T02:03:42.739Z,10.40
2023-04-16T02:04:48.423Z,9.63
2023-04-16T02:05:50.669Z,14.82
2023-04-16T02:06:55.311Z,10.35
2023-04-16T02:07:57.356Z,10.88
2023-04-16T02:09:04.694Z,15.65
2023-04-16T02:10:10.423Z,10.80
2023-04-16T02:11:15.404Z,11.40
2023-04-16T02:12:26.959Z,11.70
2023-04-16T02:14:34.317Z,10.88
2023-04-16T02:15:39.570Z,10.45
2023-04-16T02:16:41.655Z,10.73
2023-04-16T02:17:46.861Z,11.43
2023-04-16T02:18:48.910Z,10.98
2023-04-16T02:19:53.604Z,11.02
2023-04-16T02:21:01.360Z,12.32
2023-04-16T02:22:06.348Z,11.05
2023-04-16T02:23:08.802Z,11.45
2023-04-16T02:24:34.284Z,11.82
2023-04-16T02:25:46.140Z,11.20
2023-04-16T02:26:51.109Z,12.50
2023-04-16T02:27:53.167Z,12.95
2023-04-16T02:28:57.882Z,12.18
2023-04-16T02:29:59.907Z,13.93
2023-04-16T02:31:04.616Z,13.98
2023-04-16T02:32:06.818Z,13.68
2023-04-16T02:33:13.771Z,15.95
2023-04-16T02:34:15.902Z,14.15
2023-04-16T02:35:20.633Z,14.05
2023-04-16T02:36:22.690Z,13.68
2023-04-16T02:37:27.508Z,15.60
2023-04-16T02:38:29.553Z,14.73
2023-04-16T02:39:36.828Z,17.48
2023-04-16T02:40:39.488Z,16.10
2023-04-16T02:41:44.109Z,14.02
2023-04-16T02:42:46.192Z,13.80
2023-04-16T02:43:50.849Z,19.50
2023-04-16T02:44:53.162Z,17.17
2023-04-16T02:45:59.479Z,15.05
2023-04-16T02:47:01.565Z,14.18
2023-04-16T02:48:07.419Z,14.32
2023-04-16T02:49:09.824Z,14.80
2023-04-16T02:50:15.046Z,13.80
2023-04-16T02:51:17.382Z,13.68
2023-04-16T02:52:22.002Z,15.02
2023-04-16T02:53:24.064Z,15.70
2023-04-16T02:54:28.732Z,12.38
2023-04-16T02:55:33.364Z,14.73
2023-04-16T02:56:38.319Z,15.20
2023-04-16T02:57:40.959Z,13.70
2023-04-16T02:58:45.563Z,14.95
2023-04-16T02:59:47.602Z,14.07
2023-04-16T03:00:52.197Z,14.55
2023-04-16T03:01:54.349Z,17.30
2023-04-16T03:02:59.085Z,13.88
2023-04-16T03:04:01.296Z,14.13
2023-04-16T03:05:06.697Z,13.65
2023-04-16T03:06:08.745Z,14.10
2023-04-16T03:07:14.110Z,15.32
2023-04-16T03:08:16.171Z,14.80
2023-04-16T03:09:20.834Z,14.30
2023-04-16T03:10:23.535Z,14.57
2023-04-16T03:11:30.719Z,14.13
2023-04-16T03:12:32.777Z,15.07
2023-04-16T03:13:37.416Z,13.73
2023-04-16T03:14:39.475Z,13.38
2023-04-16T03:15:44.113Z,16.35
2023-04-16T03:16:46.329Z,12.57
2023-04-16T03:17:50.988Z,12.60
2023-04-16T03:18:53.135Z,15.90
2023-04-16T03:19:57.817Z,12.93
2023-04-16T03:20:59.843Z,12.15
2023-04-16T03:22:04.436Z,12.40
2023-04-16T03:23:06.495Z,11.80
2023-04-16T03:24:11.110Z,15.50
2023-04-16T03:25:13.583Z,10.77
2023-04-16T03:26:18.241Z,12.52
2023-04-16T03:27:22.805Z,13.15
2023-04-16T03:28:27.420Z,11.52
2023-04-16T03:29:29.519Z,12.05
2023-04-16T03:30:34.171Z,14.00
2023-04-16T03:31:36.557Z,12.43
2023-04-16T03:32:41.662Z,13.85
2023-04-16T03:33:43.783Z,13.52
2023-04-16T03:34:48.415Z,13.88
2023-04-16T03:35:56.231Z,12.52
2023-04-16T03:37:00.884Z,12.48
2023-04-16T03:40:03.836Z,13.25
2023-04-16T03:41:05.872Z,13.00
2023-04-16T03:42:10.441Z,13.10
2023-04-16T03:43:15.085Z,12.00
2023-04-16T03:44:19.688Z,12.65
2023-04-16T03:45:21.746Z,10.70
2023-04-16T03:46:26.474Z,10.68
2023-04-16T03:47:28.585Z,12.50
2023-04-16T03:48:33.241Z,11.80
2023-04-16T03:49:35.362Z,11.73
2023-04-16T03:50:39.988Z,11.82
2023-04-16T03:51:42.103Z,11.98
2023-04-16T03:52:47.178Z,10.05
2023-04-16T03:53:49.157Z,11.45
2023-04-16T03:54:53.983Z,10.52
2023-04-16T03:55:56.024Z,9.52
2023-04-16T03:57:01.153Z,10.50
2023-04-16T03:58:29.226Z,11.15
2023-04-16T03:59:31.243Z,13.00
2023-04-16T04:00:36.352Z,13.98
2023-04-16T04:01:38.531Z,10.93
2023-04-16T04:02:43.330Z,11.43
2023-04-16T04:03:45.640Z,12.38
2023-04-16T04:04:50.496Z,12.38
2023-04-16T04:05:52.538Z,11.88
2023-04-16T04:06:57.115Z,15.43
2023-04-16T04:07:59.125Z,13.60
2023-04-16T04:09:04.182Z,12.73
2023-04-16T04:10:08.093Z,11.00
2023-04-16T04:11:12.783Z,11.73
2023-04-16T04:12:14.856Z,14.20
2023-04-16T04:13:19.494Z,17.70
2023-04-16T04:14:24.215Z,18.15
2023-04-16T04:15:28.876Z,15.60
2023-04-16T04:16:31.230Z,13.75
2023-04-16T04:17:35.936Z,13.88
2023-04-16T04:18:38.114Z,22.55
2023-04-16T04:19:58.117Z,14.75
2023-04-16T04:21:06.207Z,20.48
2023-04-16T04:22:10.829Z,12.20
2023-04-16T04:23:12.876Z,14.82
2023-04-16T04:24:17.504Z,20.63
2023-04-16T04:25:19.773Z,12.80
2023-04-16T04:26:24.451Z,12.25
2023-04-16T04:27:26.458Z,16.98
2023-04-16T04:28:40.225Z,13.55
2023-04-16T04:29:44.911Z,13.55
2023-04-16T04:30:49.524Z,12.85
2023-04-16T04:31:51.668Z,12.90
2023-04-16T04:32:56.384Z,13.32
2023-04-16T04:33:58.453Z,15.55
2023-04-16T04:35:05.654Z,11.60
2023-04-16T04:36:08.101Z,12.40
2023-04-16T04:37:12.707Z,12.00
2023-04-16T04:38:16.221Z,11.77
2023-04-16T04:39:21.843Z,11.63
2023-04-16T04:40:23.861Z,14.95
2023-04-16T04:41:28.787Z,13.57
2023-04-16T04:42:30.960Z,16.10
2023-04-16T04:43:35.658Z,16.33
2023-04-16T04:44:37.758Z,11.63
2023-04-16T04:45:45.034Z,13.15
2023-04-16T04:46:47.069Z,10.73
2023-04-16T04:47:51.732Z,11.05
2023-04-16T04:48:53.856Z,10.07
2023-04-16T04:49:58.502Z,13.13
2023-04-16T04:51:01.239Z,17.65
2023-04-16T04:52:06.760Z,11.65
2023-04-16T04:53:10.452Z,11.80
2023-04-16T04:54:15.073Z,9.73
2023-04-16T04:55:17.087Z,9.48
2023-04-16T04:56:21.882Z,9.25
2023-04-16T04:57:24.090Z,9.70
2023-04-16T04:58:28.681Z,9.90
2023-04-16T04:59:30.911Z,9.50
2023-04-16T05:00:36.522Z,9.25
2023-04-16T05:01:41.347Z,9.23
2023-04-16T05:02:46.537Z,8.73
2023-04-16T05:03:48.870Z,9.13
2023-04-16T05:04:53.589Z,10.38
2023-04-16T05:05:55.771Z,17.38
2023-04-16T05:07:00.415Z,13.45
2023-04-16T05:08:02.462Z,10.13
2023-04-16T05:09:11.732Z,15.13
2023-04-16T05:10:14.249Z,14.65
2023-04-16T05:11:18.925Z,8.80
2023-04-16T05:12:21.182Z,8.85
2023-04-16T05:13:25.817Z,9.45
2023-04-16T05:14:27.842Z,11.80
2023-04-16T05:15:32.515Z,10.55
2023-04-16T05:16:37.210Z,8.65
2023-04-16T05:17:44.539Z,8.60
2023-04-16T05:18:46.622Z,8.35
2023-04-16T05:19:51.683Z,9.40
2023-04-16T05:20:53.944Z,7.65
2023-04-16T05:21:58.613Z,9.60
2023-04-16T05:23:00.618Z,8.50
2023-04-16T05:24:05.194Z,9.13
2023-04-16T05:25:07.801Z,8.77
2023-04-16T05:26:12.483Z,8.43
2023-04-16T05:27:14.524Z,9.52
2023-04-16T05:28:19.129Z,8.63
2023-04-16T05:29:21.167Z,10.70
2023-04-16T05:30:26.036Z,9.07
2023-04-16T05:31:28.108Z,8.65
2023-04-16T05:32:32.785Z,10.52
2023-04-16T05:33:37.461Z,10.40
2023-04-16T05:34:42.031Z,9.73
2023-04-16T05:35:44.103Z,9.10
2023-04-16T05:36:49.449Z,10.20
2023-04-16T05:37:51.441Z,9.30
2023-04-16T05:38:56.118Z,9.52
2023-04-16T05:39:58.185Z,9.20
2023-04-16T05:41:02.777Z,9.90
2023-04-16T05:42:04.782Z,9.48
2023-04-16T05:43:09.687Z,10.32
2023-04-16T05:44:11.737Z,10.75
2023-04-16T05:45:16.420Z,11.15
2023-04-16T05:46:18.503Z,11.02
2023-04-16T05:47:23.258Z,11.68
2023-04-16T05:48:25.312Z,11.77
2023-04-16T05:49:32.496Z,10.65
2023-04-16T05:50:34.569Z,11.95
2023-04-16T05:51:39.497Z,12.23
2023-04-16T05:52:41.558Z,11.85
2023-04-16T05:53:46.244Z,12.32
2023-04-16T05:54:48.304Z,12.68
2023-04-16T05:55:53.121Z,11.65
2023-04-16T05:56:55.127Z,11.77
2023-04-16T05:57:59.744Z,13.25
2023-04-16T05:59:01.764Z,11.93
2023-04-16T06:00:07.115Z,11.10
2023-04-16T06:01:09.128Z,12.00
2023-04-16T06:02:14.126Z,11.82
2023-04-16T06:03:16.513Z,12.13
2023-04-16T06:04:21.597Z,10.80
2023-04-16T06:05:27.034Z,12.82
2023-04-16T06:06:31.670Z,11.25
2023-04-16T06:07:33.697Z,11.95
2023-04-16T06:08:38.292Z,13.60
2023-04-16T06:09:40.284Z,12.45
2023-04-16T06:10:44.932Z,13.70
2023-04-16T06:11:46.962Z,13.27
2023-04-16T06:12:51.775Z,13.50
2023-04-16T06:13:53.881Z,14.38
2023-04-16T06:14:58.518Z,12.55
2023-04-16T06:16:00.762Z,14.27
2023-04-16T06:17:05.338Z,15.50
2023-04-16T06:18:07.455Z,14.35
2023-04-16T06:19:12.175Z,14.93
2023-04-16T06:20:14.592Z,14.55
2023-04-16T06:21:21.851Z,14.43
2023-04-16T06:22:24.722Z,15.40
2023-04-16T06:23:29.564Z,15.93
2023-04-16T06:24:31.690Z,15.70
2023-04-16T06:25:36.512Z,16.83
2023-04-16T06:26:38.685Z,16.40
2023-04-16T06:27:43.281Z,15.90
2023-04-16T06:28:45.350Z,16.67
2023-04-16T06:29:49.981Z,15.52
2023-04-16T06:30:54.753Z,14.90
2023-04-16T06:31:57.035Z,15.88
2023-04-16T06:33:01.785Z,16.38
2023-04-16T06:34:03.982Z,17.25
2023-04-16T06:35:09.754Z,16.58
2023-04-16T06:36:12.575Z,17.85
2023-04-16T06:37:19.757Z,14.95
2023-04-16T06:38:24.416Z,17.85
2023-04-16T06:39:26.673Z,16.52
2023-04-16T06:40:31.391Z,15.65
2023-04-16T06:41:33.432Z,18.65
2023-04-16T06:42:38.030Z,16.38
2023-04-16T06:43:40.208Z,18.17
2023-04-16T06:44:45.146Z,18.55
2023-04-16T06:45:47.249Z,17.92
2023-04-16T06:46:51.865Z,18.40
2023-04-16T06:47:54.027Z,16.70
2023-04-16T06:48:58.781Z,16.98
2023-04-16T06:50:01.047Z,17.23
2023-04-16T06:51:05.892Z,16.55
2023-04-16T06:52:08.049Z,17.58
2023-04-16T06:53:15.338Z,17.00
2023-04-16T06:54:17.427Z,18.13
2023-04-16T06:55:22.329Z,17.88
2023-04-16T06:56:24.414Z,15.95
2023-04-16T06:57:29.046Z,23.52
2023-04-16T06:58:31.152Z,19.65
2023-04-16T06:59:35.832Z,17.52
2023-04-16T07:00:37.907Z,17.17
2023-04-16T07:01:42.732Z,21.33
2023-04-16T07:02:44.933Z,17.85
2023-04-16T07:03:49.878Z,21.60
2023-04-16T07:04:52.546Z,17.83
2023-04-16T07:05:57.183Z,16.42
2023-04-16T07:06:59.256Z,17.73
2023-04-16T07:08:03.907Z,16.83
2023-04-16T07:09:08.851Z,17.20
2023-04-16T07:10:14.046Z,21.25
2023-04-16T07:11:19.240Z,30.67
2023-04-16T07:12:22.631Z,18.50
2023-04-16T07:13:27.836Z,17.35
2023-04-16T07:14:30.107Z,18.27
2023-04-16T07:15:34.794Z,17.77
2023-04-16T07:16:38.001Z,19.20
2023-04-16T07:17:42.816Z,18.05
2023-04-16T07:18:47.542Z,20.00
2023-04-16T07:19:49.830Z,18.67
2023-04-16T07:20:54.497Z,18.00
2023-04-16T07:21:56.580Z,18.45
2023-04-16T07:23:02.180Z,18.73
2023-04-16T07:24:04.572Z,17.77
2023-04-16T07:25:12.822Z,19.50
2023-04-16T07:26:14.902Z,23.20
2023-04-16T07:27:19.744Z,19.00
2023-04-16T07:28:21.936Z,18.13
2023-04-16T07:29:26.615Z,19.15
2023-04-16T07:30:34.250Z,20.20
2023-04-16T07:31:39.049Z,18.92
2023-04-16T07:32:41.163Z,20.55
2023-04-16T07:33:45.895Z,20.58
2023-04-16T07:34:47.965Z,21.15
2023-04-16T07:35:52.745Z,20.67
2023-04-16T07:36:54.783Z,21.40
2023-04-16T07:37:59.563Z,20.20
2023-04-16T07:39:01.673Z,22.02
2023-04-16T07:40:07.057Z,20.70
2023-04-16T07:41:11.773Z,23.73
2023-04-16T07:42:16.820Z,24.70
2023-04-16T07:43:21.500Z,21.40
2023-04-16T07:44:23.554Z,23.42
2023-04-16T07:45:28.229Z,22.60
2023-04-16T07:46:39.391Z,23.05
2023-04-16T07:47:50.716Z,23.35
2023-04-16T07:48:52.829Z,23.25
2023-04-16T07:49:57.733Z,25.95
2023-04-16T07:50:59.807Z,22.58
2023-04-16T07:52:05.116Z,21.02
2023-04-16T07:53:07.908Z,22.75
2023-04-16T07:54:13.330Z,25.55
2023-04-16T07:55:15.549Z,24.70
2023-04-16T07:56:22.781Z,24.23
2023-04-16T07:57:24.869Z,24.25
2023-04-16T07:58:29.595Z,26.13
2023-04-16T07:59:34.259Z,21.55
2023-04-16T08:00:36.660Z,23.65
2023-04-16T08:01:41.614Z,30.85
2023-04-16T08:02:44.074Z,25.05
2023-04-16T08:03:49.124Z,25.88
2023-04-16T08:04:51.542Z,27.98
2023-04-16T08:05:56.228Z,25.02
2023-04-16T08:06:58.412Z,22.75
2023-04-16T08:08:03.081Z,22.83
2023-04-16T08:09:05.175Z,23.52
2023-04-16T08:10:11.512Z,53.95
2023-04-16T08:11:13.662Z,51.42
2023-04-16T08:12:21.168Z,32.33
2023-04-16T08:13:23.560Z,32.47
2023-04-16T08:14:28.260Z,20.92
2023-04-16T08:15:31.042Z,30.65
2023-04-16T08:16:36.035Z,24.70
2023-04-16T08:17:38.800Z,22.65
2023-04-16T08:18:43.571Z,24.27
2023-04-16T08:19:48.404Z,21.17
2023-04-16T08:20:50.488Z,21.63
2023-04-16T08:21:55.338Z,23.70
2023-04-16T08:22:57.436Z,19.80
2023-04-16T08:24:02.250Z,20.67
2023-04-16T08:25:05.208Z,18.88
2023-04-16T08:26:09.842Z,21.65
2023-04-16T08:27:19.642Z,17.77
2023-04-16T08:28:24.789Z,20.92
2023-04-16T08:29:29.503Z,22.73
2023-04-16T08:30:31.769Z,23.65
2023-04-16T08:31:36.642Z,20.42
2023-04-16T08:32:38.955Z,20.92
2023-04-16T08:33:43.699Z,21.17
2023-04-16T08:34:48.428Z,21.75
2023-04-16T08:35:50.745Z,20.65
2023-04-16T08:36:55.387Z,20.17
2023-04-16T08:37:58.062Z,19.20
2023-04-16T08:39:02.706Z,19.30
2023-04-16T08:40:06.324Z,20.10
2023-04-16T08:41:15.212Z,19.30
2023-04-16T08:42:24.209Z,20.58
2023-04-16T08:43:41.919Z,18.83
2023-04-16T08:44:51.685Z,21.42
2023-04-16T08:45:57.965Z,20.83
2023-04-16T08:47:02.438Z,20.30
2023-04-16T08:48:08.559Z,18.42
2023-04-16T08:49:18.210Z,18.75
2023-04-16T08:50:41.061Z,18.50
2023-04-16T08:51:45.889Z,20.42
2023-04-16T08:52:54.832Z,22.17
2023-04-16T08:54:03.423Z,18.63
2023-04-16T08:55:15.006Z,17.75
2023-04-16T08:57:26.728Z,18.70
2023-04-16T08:58:32.444Z,23.30
2023-04-16T08:59:41.239Z,22.25
2023-04-16T09:00:44.259Z,23.13
2023-04-16T09:01:49.363Z,21.30
2023-04-16T09:02:52.281Z,20.48
2023-04-16T09:03:57.476Z,21.77
2023-04-16T09:05:00.649Z,19.65
2023-04-16T09:06:07.040Z,19.42
2023-04-16T09:07:09.694Z,18.90
2023-04-16T09:08:14.412Z,19.10
2023-04-16T09:09:17.978Z,19.20
2023-04-16T09:10:23.404Z,18.42
2023-04-16T09:11:26.769Z,19.20
2023-04-16T09:12:32.896Z,18.27
2023-04-16T09:13:37.609Z,17.50
2023-04-16T09:14:43.277Z,18.33
2023-04-16T09:15:48.277Z,18.52
2023-04-16T09:16:53.383Z,19.77
2023-04-16T09:17:59.290Z,18.00
2023-04-16T09:19:04.060Z,19.05
2023-04-16T09:20:12.664Z,16.63
2023-04-16T09:21:18.067Z,15.63
2023-04-16T09:22:22.737Z,14.70
2023-04-16T09:23:27.985Z,15.98
2023-04-16T09:24:30.657Z,17.15
2023-04-16T09:25:37.482Z,16.67
2023-04-16T09:26:41.598Z,17.95
2023-04-16T09:27:46.985Z,14.98
2023-04-16T09:28:51.053Z,15.82
2023-04-16T09:29:58.302Z,14.02
2023-04-16T09:31:08.728Z,13.57
2023-04-16T09:32:14.746Z,13.93
2023-04-16T09:33:22.925Z,16.42
2023-04-16T09:34:27.956Z,13.57
2023-04-16T09:35:48.405Z,13.23
2023-04-16T09:36:50.582Z,12.07
2023-04-16T09:37:58.961Z,11.75
2023-04-16T09:39:04.489Z,11.20
2023-04-16T09:40:08.298Z,11.48
2023-04-16T09:41:12.913Z,11.88
2023-04-16T09:42:14.964Z,12.55
2023-04-16T09:43:20.932Z,12.30
2023-04-16T09:44:36.474Z,11.10
2023-04-16T09:45:54.448Z,12.20
2023-04-16T09:47:09.376Z,10.18
2023-04-16T09:48:12.490Z,10.75
2023-04-16T09:49:19.200Z,9.50
2023-04-16T09:50:21.471Z,10.15
2023-04-16T09:51:27.188Z,9.35
2023-04-16T09:52:29.283Z,9.90
2023-04-16T09:53:35.235Z,10.48
2023-04-16T09:54:37.315Z,12.40
2023-04-16T09:55:42.004Z,10.82
2023-04-16T09:56:48.025Z,10.63
2023-04-16T09:57:59.168Z,10.80
2023-04-16T09:59:03.879Z,10.65
2023-04-16T10:00:09.272Z,10.85
2023-04-16T10:01:17.495Z,12.90
2023-04-16T10:02:20.820Z,29.20
2023-04-16T10:03:47.759Z,16.80
2023-04-16T10:04:54.167Z,15.10
2023-04-16T10:06:03.626Z,16.88
2023-04-16T10:07:07.424Z,13.00
2023-04-16T10:08:17.214Z,18.70
2023-04-16T10:09:20.793Z,12.73
2023-04-16T10:10:28.695Z,15.55
2023-04-16T10:11:31.948Z,14.55
2023-04-16T10:12:37.687Z,17.33
2023-04-16T10:13:41.954Z,14.27
2023-04-16T10:14:50.301Z,28.13
2023-04-16T10:15:59.562Z,18.75
2023-04-16T10:17:07.059Z,35.40
2023-04-16T10:18:15.459Z,27.40
2023-04-16T10:19:19.461Z,16.30
2023-04-16T10:20:27.585Z,18.60
2023-04-16T10:21:35.394Z,14.32
2023-04-16T10:22:42.199Z,12.95
2023-04-16T10:24:54.343Z,24.23
2023-04-16T10:25:58.517Z,16.50
2023-04-16T10:27:07.029Z,17.58
2023-04-16T10:28:18.062Z,22.15
2023-04-16T10:29:32.209Z,21.20
2023-04-16T10:30:41.679Z,21.42
2023-04-16T10:31:52.069Z,25.35
2023-04-16T10:33:04.274Z,19.52
2023-04-16T10:34:15.500Z,22.13
2023-04-16T10:35:21.310Z,20.38
2023-04-16T10:36:31.137Z,14.13
2023-04-16T10:37:40.298Z,20.95
2023-04-16T10:38:56.688Z,20.45
2023-04-16T10:40:08.132Z,19.80
2023-04-16T10:41:16.868Z,21.13
2023-04-16T10:42:27.579Z,22.65
2023-04-16T10:43:37.406Z,19.27
2023-04-16T10:44:47.278Z,19.75
2023-04-16T10:45:57.233Z,17.77
2023-04-16T10:47:17.332Z,18.88
2023-04-16T10:48:35.606Z,25.77
2023-04-16T10:49:54.759Z,17.85
2023-04-16T10:51:03.476Z,21.60
2023-04-16T10:52:18.444Z,19.52
2023-04-16T10:53:29.333Z,19.77
2023-04-16T10:54:41.626Z,20.67
2023-04-16T10:55:58.849Z,22.67
2023-04-16T10:57:10.633Z,25.65
2023-04-16T10:58:32.508Z,19.23
2023-04-16T10:59:43.839Z,20.80
2023-04-16T11:00:51.812Z,19.77
2023-04-16T11:02:02.203Z,24.02
2023-04-16T11:03:07.284Z,33.38
2023-04-16T11:04:39.129Z,25.05
2023-04-16T11:05:51.279Z,14.15
2023-04-16T11:07:12.724Z,27.70
2023-04-16T11:08:23.384Z,22.20
2023-04-16T11:09:49.915Z,29.83
2023-04-16T11:10:59.107Z,26.30
2023-04-16T11:12:10.942Z,22.38
2023-04-16T11:13:24.509Z,17.58
2023-04-16T11:14:31.067Z,23.17
2023-04-16T11:15:37.184Z,25.80
2023-04-16T11:16:43.810Z,19.30
2023-04-16T11:17:58.800Z,20.75
2023-04-16T11:19:05.623Z,18.80
2023-04-16T11:20:23.828Z,14.70
2023-04-16T11:21:30.529Z,12.27
2023-04-16T11:22:42.657Z,21.48
2023-04-16T11:23:52.888Z,16.38
2023-04-16T11:25:05.476Z,20.42
2023-04-16T11:26:24.580Z,20.73
2023-04-16T11:27:42.346Z,14.52
2023-04-16T11:28:47.554Z,18.58
2023-04-16T11:30:05.061Z,21.25
2023-04-16T11:31:13.594Z,14.60
2023-04-16T11:32:30.012Z,20.42
2023-04-16T11:34:03.296Z,24.42
2023-04-16T11:35:25.870Z,21.67
2023-04-16T11:36:28.122Z,18.85
2023-04-16T11:37:36.947Z,13.60
2023-04-16T11:38:41.230Z,15.63
2023-04-16T11:39:53.933Z,18.58
2023-04-16T11:40:56.108Z,20.50
2023-04-16T11:42:02.805Z,16.27
2023-04-16T11:43:14.001Z,19.35
2023-04-16T11:44:23.242Z,19.45
2023-04-16T11:45:28.209Z,19.52
2023-04-16T11:46:40.075Z,17.63
2023-04-16T11:47:52.054Z,16.42
2023-04-16T11:48:55.661Z,21.60
2023-04-16T11:50:00.581Z,20.33
2023-04-16T11:51:05.826Z,23.13
2023-04-16T11:52:10.529Z,23.15
2023-04-16T11:53:12.618Z,21.63
2023-04-16T11:54:23.961Z,27.23
2023-04-16T11:55:26.244Z,16.98
2023-04-16T11:56:31.677Z,14.10
2023-04-16T11:57:33.799Z,27.33
2023-04-16T11:58:38.754Z,67.68
2023-04-16T12:00:01.762Z,27.85
2023-04-16T12:01:05.525Z,18.73
2023-04-16T12:02:10.241Z,22.48
2023-04-16T12:03:12.535Z,23.33
2023-04-16T12:04:18.839Z,19.02
2023-04-16T12:05:31.389Z,24.65
2023-04-16T12:06:36.336Z,61.50
2023-04-16T12:07:48.154Z,16.15
2023-04-16T12:08:52.093Z,21.77
2023-04-16T12:10:08.662Z,30.23
2023-04-16T12:11:11.448Z,37.00
2023-04-16T12:12:31.658Z,71.80
2023-04-16T12:13:40.336Z,77.55
2023-04-16T12:14:51.190Z,28.95
2023-04-16T12:15:57.252Z,22.35
2023-04-16T12:17:19.888Z,26.60
2023-04-16T12:18:27.154Z,21.20
2023-04-16T12:19:29.550Z,23.02
2023-04-16T12:20:43.097Z,18.63
2023-04-16T12:21:52.178Z,18.55
2023-04-16T12:22:59.709Z,21.88
2023-04-16T12:24:04.569Z,22.45
2023-04-16T12:25:11.361Z,17.52
2023-04-16T12:26:14.642Z,21.58
2023-04-16T12:27:19.328Z,21.83
2023-04-16T12:28:30.026Z,20.83
2023-04-16T12:29:34.862Z,19.17
2023-04-16T12:30:53.274Z,22.17
2023-04-16T12:31:58.061Z,20.48
2023-04-16T12:33:16.255Z,20.30
2023-04-16T12:34:21.517Z,18.40
2023-04-16T12:35:35.337Z,26.20
2023-04-16T12:36:47.629Z,21.05
2023-04-16T12:37:52.825Z,20.77
2023-04-16T12:38:57.419Z,21.73
2023-04-16T12:40:02.059Z,21.65
2023-04-16T12:41:06.717Z,21.63
2023-04-16T12:42:11.364Z,18.88
2023-04-16T12:43:16.434Z,19.20
2023-04-16T12:44:18.518Z,22.00
2023-04-16T12:45:23.785Z,27.02
2023-04-16T12:46:25.938Z,20.67
2023-04-16T12:47:30.790Z,23.88
2023-04-16T12:48:35.464Z,20.83
2023-04-16T12:49:37.652Z,21.67
2023-04-16T12:50:44.539Z,18.88
2023-04-16T12:51:52.399Z,20.60
2023-04-16T12:52:57.904Z,23.60
2023-04-16T12:54:02.921Z,23.70
2023-04-16T12:55:08.349Z,23.85
2023-04-16T12:56:10.532Z,22.45
2023-04-16T12:57:16.312Z,21.83
2023-04-16T12:58:19.233Z,25.05
2023-04-16T12:59:23.902Z,19.08
2023-04-16T13:00:26.115Z,15.40
2023-04-16T13:01:31.489Z,19.88
2023-04-16T13:02:34.331Z,19.90
2023-04-16T13:03:39.188Z,21.20
2023-04-16T13:04:42.010Z,18.65
2023-04-16T13:05:47.075Z,18.27
2023-04-16T13:06:51.709Z,21.60
2023-04-16T13:07:57.493Z,20.55
2023-04-16T13:09:02.257Z,24.02
2023-04-16T13:10:05.714Z,21.30
2023-04-16T13:11:10.768Z,18.67
2023-04-16T13:12:15.813Z,19.48
2023-04-16T13:13:17.922Z,18.50
2023-04-16T13:14:23.232Z,17.90
2023-04-16T13:15:25.245Z,20.88
2023-04-16T13:16:29.851Z,23.73
2023-04-16T13:17:32.032Z,21.38
2023-04-16T13:18:37.075Z,15.43
2023-04-16T13:19:39.312Z,18.38
2023-04-16T13:20:44.283Z,19.55
2023-04-16T13:21:46.603Z,21.55
2023-04-16T13:22:51.304Z,20.77
2023-04-16T13:23:55.982Z,23.67
2023-04-16T13:25:01.088Z,21.17
2023-04-16T13:26:06.570Z,21.00
2023-04-16T13:27:08.657Z,19.45
2023-04-16T13:28:13.256Z,19.45
2023-04-16T13:29:15.601Z,17.80
2023-04-16T13:30:20.282Z,21.00
2023-04-16T13:31:22.729Z,19.52
2023-04-16T13:32:28.145Z,23.25
2023-04-16T13:33:30.331Z,18.65
2023-04-16T13:34:36.032Z,26.42
2023-04-16T13:35:40.274Z,23.65
2023-04-16T13:36:46.145Z,15.60
2023-04-16T13:37:48.442Z,18.25
2023-04-16T13:38:53.571Z,23.58
2023-04-16T13:40:00.919Z,23.17
2023-04-16T13:41:06.263Z,21.10
2023-04-16T13:42:08.354Z,16.73
2023-04-16T13:43:13.955Z,21.85
2023-04-16T13:44:18.902Z,19.75
2023-04-16T13:45:21.073Z,21.67
2023-04-16T13:46:26.735Z,18.15
2023-04-16T13:47:31.758Z,16.60
2023-04-16T13:48:36.462Z,18.95
2023-04-16T13:49:38.627Z,14.43
2023-04-16T13:50:43.318Z,17.27
2023-04-16T13:51:53.092Z,20.42
2023-04-16T13:53:04.925Z,24.20
2023-04-16T13:54:17.013Z,13.85
2023-04-16T13:55:31.993Z,25.25
2023-04-16T13:56:37.087Z,23.80
2023-04-16T13:57:44.209Z,20.30
2023-04-16T13:58:49.988Z,19.63
2023-04-16T14:00:01.445Z,22.25
2023-04-16T14:01:13.852Z,22.05
2023-04-16T14:02:19.013Z,19.20
2023-04-16T14:03:26.205Z,18.60
2023-04-16T14:04:33.749Z,24.70
2023-04-16T14:05:39.103Z,19.17
2023-04-16T14:06:41.328Z,18.13
2023-04-16T14:07:50.564Z,18.85
2023-04-16T14:08:53.181Z,20.23
2023-04-16T14:09:57.940Z,21.77
2023-04-16T14:11:06.650Z,17.98
2023-04-16T14:12:12.107Z,16.98